Time;durP1;ratioP1;P1;durP2;ratioP2;P2;SDS_P1;SDS_P2;PMS_P1;PMS_P2;Temp;Humidity;BMP_temperature;BMP_pressure;BME280_temperature;BME280_humidity;BME280_pressure;Samples;Min_cycle;Max_cycle;Signal;HPM_P1;HPM_P2
2022/03/26 00:00:08;;;;;;;31.73;28.60;;;;;;;;;;5064359;28;20029;-49
2022/03/26 00:02:34;;;;;;;21.90;19.55;;;;;;;;;;5064224;28;20271;-49
2022/03/26 00:04:59;;;;;;;22.23;19.97;;;;;;;;;;5064233;28;20549;-49
2022/03/26 00:07:25;;;;;;;20.93;18.90;;;;;;;;;;5064255;28;20721;-50
2022/03/26 00:09:50;;;;;;;31.20;28.13;;;;;;;;;;5080653;28;20321;-49
2022/03/26 00:12:15;;;;;;;34.57;31.07;;;;;;;;;;5063970;28;20334;-50
2022/03/26 00:14:40;;;;;;;23.80;21.60;;;;;;;;;;5064028;28;20298;-50
2022/03/26 00:17:05;;;;;;;33.50;30.20;;;;;;;;;;5064050;28;20023;-49
2022/03/26 00:19:31;;;;;;;26.40;23.83;;;;;;;;;;5064162;28;20021;-49
2022/03/26 00:21:56;;;;;;;35.37;31.80;;;;;;;;;;5047396;28;20704;-49
2022/03/26 00:24:21;;;;;;;26.97;24.47;;;;;;;;;;5063387;28;20282;-50
2022/03/26 00:26:47;;;;;;;23.13;20.70;;;;;;;;;;5063247;28;20017;-49
2022/03/26 00:29:12;;;;;;;26.67;24.05;;;;;;;;;;5063393;28;20035;-49
2022/03/26 00:31:38;;;;;;;38.33;34.53;;;;;;;;;;5063675;28;20098;-49
2022/03/26 00:34:04;;;;;;;33.17;29.73;;;;;;;;;;5063933;28;20305;-49
2022/03/26 00:36:30;;;;;;;24.48;21.95;;;;;;;;;;5063747;28;20021;-48
2022/03/26 00:38:55;;;;;;;26.77;24.48;;;;;;;;;;5052270;28;20021;-50
2022/03/26 00:41:20;;;;;;;29.87;26.87;;;;;;;;;;5058436;28;20024;-49
2022/03/26 00:43:45;;;;;;;32.58;29.42;;;;;;;;;;5063345;28;20654;-49
2022/03/26 00:46:11;;;;;;;30.23;27.33;;;;;;;;;;5063528;28;20416;-49
2022/03/26 00:48:36;;;;;;;27.77;25.13;;;;;;;;;;5072189;28;20290;-49
2022/03/26 00:51:02;;;;;;;30.52;27.52;;;;;;;;;;5070972;28;20028;-50
2022/03/26 00:53:27;;;;;;;30.33;27.38;;;;;;;;;;5063175;28;20028;-49
2022/03/26 00:55:52;;;;;;;40.70;36.67;;;;;;;;;;5062824;28;20495;-49
2022/03/26 00:58:17;;;;;;;44.93;40.53;;;;;;;;;;5063394;28;20031;-49
2022/03/26 01:00:42;;;;;;;55.20;49.23;;;;;;;;;;5063421;28;20325;-49
2022/03/26 01:03:09;;;;;;;14.43;12.98;;;;;;;;;;5063313;28;20017;-49
2022/03/26 01:05:35;;;;;;;59.42;52.95;;;;;;;;;;5062808;28;20035;-50
2022/03/26 01:08:00;;;;;;;83.47;68.68;;;;;;;;;;5067117;28;20671;-50
2022/03/26 01:10:26;;;;;;;56.57;50.43;;;;;;;;;;5075874;28;20488;-49
2022/03/26 01:12:52;;;;;;;75.53;64.20;;;;;;;;;;5063067;28;20016;-50
2022/03/26 01:15:17;;;;;;;61.70;53.58;;;;;;;;;;5063356;28;20032;-50
2022/03/26 01:17:42;;;;;;;59.13;52.70;;;;;;;;;;5063437;28;20021;-50
2022/03/26 01:20:08;;;;;;;27.73;24.87;;;;;;;;;;5063244;28;20336;-51
2022/03/26 01:22:33;;;;;;;32.28;29.08;;;;;;;;;;5062795;28;20021;-49
2022/03/26 01:24:58;;;;;;;48.72;43.70;;;;;;;;;;5062542;28;20035;-50
2022/03/26 01:27:23;;;;;;;61.57;54.73;;;;;;;;;;5063121;28;20108;-49
2022/03/26 01:29:49;;;;;;;36.72;33.28;;;;;;;;;;5079124;28;20329;-49
2022/03/26 01:32:14;;;;;;;38.67;34.93;;;;;;;;;;5062625;28;20629;-51
2022/03/26 01:34:39;;;;;;;42.23;37.90;;;;;;;;;;5063097;28;20029;-49
2022/03/26 01:37:04;;;;;;;40.05;36.08;;;;;;;;;;5063379;28;20657;-51
2022/03/26 01:39:30;;;;;;;11.07;6.60;;;;;;;;;;5045672;28;20036;-50
2022/03/26 01:42:00;;;;;;;40.25;36.33;;;;;;;;;;5063675;28;20270;-50
2022/03/26 01:44:25;;;;;;;13.05;11.68;;;;;;;;;;5063397;28;20024;-48
2022/03/26 01:46:51;;;;;;;31.63;28.37;;;;;;;;;;5068255;28;20033;-50
2022/03/26 01:49:16;;;;;;;23.30;21.02;;;;;;;;;;5072316;28;20040;-52
2022/03/26 01:51:42;;;;;;;25.88;23.48;;;;;;;;;;5072211;28;20043;-50
2022/03/26 01:54:07;;;;;;;7.50;3.97;;;;;;;;;;5072469;28;20088;-51
2022/03/26 01:56:32;;;;;;;9.15;5.25;;;;;;;;;;5066416;28;21891;-51
2022/03/26 01:58:57;;;;;;;9.73;5.50;;;;;;;;;;5065146;28;20060;-51
2022/03/26 02:01:23;;;;;;;9.63;5.40;;;;;;;;;;5053295;28;20267;-50
2022/03/26 02:03:48;;;;;;;8.73;4.93;;;;;;;;;;5073127;28;20031;-50
2022/03/26 02:06:14;;;;;;;11.80;9.23;;;;;;;;;;5065936;28;20024;-50
2022/03/26 02:08:40;;;;;;;11.32;7.55;;;;;;;;;;5061888;28;20302;-50
2022/03/26 02:11:05;;;;;;;17.23;13.90;;;;;;;;;;5062227;28;20027;-50
2022/03/26 02:13:49;;;;;;;11.37;8.20;;;;;;;;;;5061699;28;20078;-50
2022/03/26 02:16:15;;;;;;;58.20;46.38;;;;;;;;;;5061468;28;20313;-51
2022/03/26 02:18:40;;;;;;;27.02;23.13;;;;;;;;;;5051961;28;20049;-50
2022/03/26 02:21:05;;;;;;;11.17;6.27;;;;;;;;;;5052816;28;20462;-50
2022/03/26 02:23:30;;;;;;;13.63;12.23;;;;;;;;;;5060746;28;20535;-50
2022/03/26 02:25:56;;;;;;;10.83;6.30;;;;;;;;;;5060604;28;20547;-49
2022/03/26 02:28:22;;;;;;;9.03;5.53;;;;;;;;;;5060918;28;21302;-49
2022/03/26 02:30:47;;;;;;;56.22;40.40;;;;;;;;;;5060736;28;20813;-49
2022/03/26 02:33:12;;;;;;;101.10;72.73;;;;;;;;;;5060703;28;20044;-49
2022/03/26 02:35:38;;;;;;;12.07;9.10;;;;;;;;;;5061157;28;20777;-50
2022/03/26 02:38:03;;;;;;;78.27;59.53;;;;;;;;;;5058132;28;20738;-49
2022/03/26 02:40:28;;;;;;;80.53;58.10;;;;;;;;;;5049170;28;20843;-50
2022/03/26 02:42:53;;;;;;;26.13;23.53;;;;;;;;;;5061741;28;20269;-50
2022/03/26 02:45:19;;;;;;;30.98;23.02;;;;;;;;;;5061735;28;20290;-49
2022/03/26 02:47:44;;;;;;;29.30;23.67;;;;;;;;;;5061217;28;20031;-50
2022/03/26 02:50:09;;;;;;;76.30;61.53;;;;;;;;;;5061470;28;20882;-49
2022/03/26 02:52:36;;;;;;;39.33;35.28;;;;;;;;;;5061474;28;20487;-49
2022/03/26 02:55:01;;;;;;;29.00;25.92;;;;;;;;;;5061524;28;20086;-50
2022/03/26 02:57:26;;;;;;;40.07;33.97;;;;;;;;;;5061647;28;20024;-50
2022/03/26 02:59:52;;;;;;;106.03;64.83;;;;;;;;;;5061225;28;20318;-50
2022/03/26 03:02:18;;;;;;;20.73;18.70;;;;;;;;;;5061708;28;20205;-49
2022/03/26 03:04:43;;;;;;;129.45;87.38;;;;;;;;;;5061482;28;20039;-49
2022/03/26 03:07:08;;;;;;;29.15;17.08;;;;;;;;;;5061548;28;20033;-49
2022/03/26 03:09:33;;;;;;;25.73;23.23;;;;;;;;;;5061516;28;20037;-49
2022/03/26 03:11:58;;;;;;;183.95;113.35;;;;;;;;;;5061403;28;20847;-49
2022/03/26 03:14:24;;;;;;;26.23;23.63;;;;;;;;;;5061346;28;20027;-49
2022/03/26 03:16:49;;;;;;;438.70;295.37;;;;;;;;;;5061518;28;20381;-50
2022/03/26 03:19:15;;;;;;;60.42;53.92;;;;;;;;;;5061545;28;20115;-50
2022/03/26 03:21:40;;;;;;;11.88;8.43;;;;;;;;;;5061331;28;20607;-50
2022/03/26 03:24:05;;;;;;;21.52;19.42;;;;;;;;;;5043514;28;20549;-50
2022/03/26 03:26:31;;;;;;;14.68;12.70;;;;;;;;;;5061229;28;20025;-50
2022/03/26 03:28:58;;;;;;;26.85;24.38;;;;;;;;;;5061472;28;20040;-50
2022/03/26 03:31:23;;;;;;;14.13;12.65;;;;;;;;;;5061479;28;20013;-50
2022/03/26 03:33:48;;;;;;;19.00;17.08;;;;;;;;;;5062666;28;20059;-48
2022/03/26 03:36:13;;;;;;;7.50;4.07;;;;;;;;;;5064616;28;20052;-49
2022/03/26 03:38:39;;;;;;;14.18;10.68;;;;;;;;;;5055960;28;20806;-49
2022/03/26 03:41:04;;;;;;;10.47;9.30;;;;;;;;;;5057323;28;20024;-49
2022/03/26 03:43:29;;;;;;;12.95;11.18;;;;;;;;;;5064834;28;20275;-49
2022/03/26 03:45:54;;;;;;;15.00;13.00;;;;;;;;;;5063998;28;20029;-49
2022/03/26 03:48:19;;;;;;;10.97;7.53;;;;;;;;;;5063412;28;20103;-49
2022/03/26 03:50:45;;;;;;;9.40;7.03;;;;;;;;;;5064726;28;20139;-49
2022/03/26 03:53:10;;;;;;;14.27;11.02;;;;;;;;;;5064682;28;20162;-49
2022/03/26 03:55:36;;;;;;;8.97;4.60;;;;;;;;;;5064254;28;20694;-50
2022/03/26 03:58:01;;;;;;;7.73;4.07;;;;;;;;;;5064301;28;20294;-49
2022/03/26 04:00:26;;;;;;;7.45;4.15;;;;;;;;;;5064396;28;20275;-49
2022/03/26 04:02:53;;;;;;;7.80;4.22;;;;;;;;;;5064224;28;20025;-50
2022/03/26 04:05:18;;;;;;;7.90;4.15;;;;;;;;;;5046227;28;20041;-49
2022/03/26 04:07:44;;;;;;;7.70;4.50;;;;;;;;;;5063882;28;20102;-50
2022/03/26 04:10:09;;;;;;;7.47;4.22;;;;;;;;;;5064257;28;20298;-49
2022/03/26 04:12:38;;;;;;;9.60;4.53;;;;;;;;;;5064076;28;20086;-49
2022/03/26 04:15:04;;;;;;;7.35;3.90;;;;;;;;;;5062815;28;20545;-49
2022/03/26 04:17:29;;;;;;;10.50;6.85;;;;;;;;;;5064264;28;20028;-50
2022/03/26 04:19:54;;;;;;;9.93;5.28;;;;;;;;;;5047482;28;20048;-49
2022/03/26 04:22:20;;;;;;;8.73;4.80;;;;;;;;;;5064187;28;20016;-49
2022/03/26 04:24:45;;;;;;;9.17;7.13;;;;;;;;;;5063924;28;20110;-49
2022/03/26 04:27:10;;;;;;;8.47;4.33;;;;;;;;;;5064053;28;20266;-49
2022/03/26 04:29:36;;;;;;;8.17;4.97;;;;;;;;;;5064129;28;20134;-49
2022/03/26 04:32:01;;;;;;;8.55;4.35;;;;;;;;;;5063575;28;20306;-49
2022/03/26 04:34:26;;;;;;;9.02;5.32;;;;;;;;;;5062866;28;20036;-49
2022/03/26 04:36:52;;;;;;;8.63;4.68;;;;;;;;;;5063824;28;20553;-49
2022/03/26 04:39:17;;;;;;;7.22;3.80;;;;;;;;;;5050059;28;20071;-49
2022/03/26 04:41:42;;;;;;;9.02;5.25;;;;;;;;;;5060450;28;20043;-49
2022/03/26 04:44:07;;;;;;;9.30;6.30;;;;;;;;;;5063380;28;20730;-49
2022/03/26 04:46:34;;;;;;;10.67;5.20;;;;;;;;;;5063678;28;20706;-48
2022/03/26 04:48:59;;;;;;;8.23;4.95;;;;;;;;;;5045514;28;20377;-48
2022/03/26 04:51:24;;;;;;;6.43;4.07;;;;;;;;;;5063376;28;20128;-48
2022/03/26 04:53:49;;;;;;;6.73;3.60;;;;;;;;;;5063243;28;20020;-48
2022/03/26 04:56:15;;;;;;;7.97;4.17;;;;;;;;;;5063341;28;20086;-49
2022/03/26 04:58:40;;;;;;;7.47;4.40;;;;;;;;;;5054289;28;20120;-49
2022/03/26 05:01:07;;;;;;;8.37;4.33;;;;;;;;;;5055208;28;20031;-48
2022/03/26 05:03:32;;;;;;;8.63;4.20;;;;;;;;;;5062947;28;20275;-49
2022/03/26 05:05:57;;;;;;;8.65;4.97;;;;;;;;;;5062874;28;20046;-49
2022/03/26 05:08:23;;;;;;;7.50;4.40;;;;;;;;;;5062758;28;20427;-50
2022/03/26 05:10:48;;;;;;;9.18;4.60;;;;;;;;;;5062920;28;20291;-50
2022/03/26 05:13:15;;;;;;;11.13;7.85;;;;;;;;;;5059478;28;20522;-51
2022/03/26 05:15:40;;;;;;;14.23;12.27;;;;;;;;;;5050664;28;20107;-51
2022/03/26 05:18:05;;;;;;;21.10;18.50;;;;;;;;;;5054505;28;20110;-51
2022/03/26 05:20:30;;;;;;;11.43;6.88;;;;;;;;;;5060922;28;20259;-51
2022/03/26 05:22:56;;;;;;;12.98;7.15;;;;;;;;;;5060670;28;20330;-51
2022/03/26 05:25:21;;;;;;;11.95;10.23;;;;;;;;;;5059742;28;20020;-51
2022/03/26 05:27:47;;;;;;;32.15;29.15;;;;;;;;;;5060173;28;20028;-51
2022/03/26 05:30:14;;;;;;;21.30;19.20;;;;;;;;;;5055527;28;20040;-51
2022/03/26 05:32:39;;;;;;;20.85;18.70;;;;;;;;;;5062209;28;20042;-55
2022/03/26 05:35:11;;;;;;;13.88;10.85;;;;;;;;;;5062384;28;20571;-51
2022/03/26 05:37:36;;;;;;;28.05;25.55;;;;;;;;;;5045425;28;20025;-51
2022/03/26 05:40:02;;;;;;;31.53;28.47;;;;;;;;;;5062231;28;20086;-52
2022/03/26 05:42:27;;;;;;;39.17;35.30;;;;;;;;;;5062373;28;20642;-50
2022/03/26 05:44:52;;;;;;;11.30;6.78;;;;;;;;;;5062643;28;20027;-51
2022/03/26 05:47:18;;;;;;;20.52;18.30;;;;;;;;;;5061066;28;20020;-51
2022/03/26 05:49:43;;;;;;;24.85;22.67;;;;;;;;;;5058952;28;20035;-51
2022/03/26 05:52:09;;;;;;;11.68;10.20;;;;;;;;;;5062371;28;20021;-51
2022/03/26 05:54:34;;;;;;;10.95;6.80;;;;;;;;;;5059073;28;20021;-51
2022/03/26 05:56:59;;;;;;;11.60;8.90;;;;;;;;;;5060769;28;20016;-51
2022/03/26 05:59:26;;;;;;;14.68;11.15;;;;;;;;;;5059953;28;20059;-51
2022/03/26 06:01:54;;;;;;;12.10;9.48;;;;;;;;;;5059629;28;20086;-51
2022/03/26 06:04:20;;;;;;;31.88;28.88;;;;;;;;;;5062076;28;20625;-51
2022/03/26 06:06:47;;;;;;;26.02;23.67;;;;;;;;;;5061940;28;20025;-51
2022/03/26 06:09:13;;;;;;;26.67;24.33;;;;;;;;;;5061692;28;20051;-51
2022/03/26 06:11:38;;;;;;;41.38;37.45;;;;;;;;;;5062194;28;20029;-51
2022/03/26 06:14:04;;;;;;;41.88;37.78;;;;;;;;;;5061565;28;20036;-52
2022/03/26 06:16:30;;;;;;;33.75;30.48;;;;;;;;;;5061639;28;20028;-52
2022/03/26 06:18:55;;;;;;;43.03;38.60;;;;;;;;;;5047672;28;20033;-51
2022/03/26 06:21:20;;;;;;;51.40;46.10;;;;;;;;;;5041851;28;20063;-51
2022/03/26 06:23:46;;;;;;;46.58;41.72;;;;;;;;;;5042108;28;20424;-51
2022/03/26 06:26:11;;;;;;;60.13;53.60;;;;;;;;;;5045367;28;20648;-51
2022/03/26 06:28:37;;;;;;;47.75;43.00;;;;;;;;;;5055291;28;20103;-52
2022/03/26 06:31:02;;;;;;;14.55;12.88;;;;;;;;;;5052694;28;20025;-52
2022/03/26 06:33:28;;;;;;;33.35;30.15;;;;;;;;;;5061635;28;20753;-51
2022/03/26 06:35:53;;;;;;;58.25;51.97;;;;;;;;;;5060398;28;20037;-51
2022/03/26 06:38:18;;;;;;;53.15;47.63;;;;;;;;;;5054305;28;20028;-51
2022/03/26 06:40:44;;;;;;;62.35;54.67;;;;;;;;;;5056123;28;20494;-51
2022/03/26 06:43:10;;;;;;;34.10;30.85;;;;;;;;;;5060859;28;20113;-52
2022/03/26 06:45:35;;;;;;;43.17;39.05;;;;;;;;;;5055087;28;20044;-51
2022/03/26 06:48:01;;;;;;;44.85;40.60;;;;;;;;;;5057669;28;20028;-52
2022/03/26 06:50:26;;;;;;;37.45;33.45;;;;;;;;;;5040821;28;20036;-50
2022/03/26 06:52:52;;;;;;;13.18;11.50;;;;;;;;;;5060033;28;20028;-51
2022/03/26 06:55:18;;;;;;;25.55;23.08;;;;;;;;;;5060464;28;20024;-48
2022/03/26 06:57:43;;;;;;;8.35;4.82;;;;;;;;;;5058676;28;20774;-51
2022/03/26 07:00:09;;;;;;;10.52;9.43;;;;;;;;;;5061377;28;20100;-51
2022/03/26 07:02:35;;;;;;;10.77;5.63;;;;;;;;;;5060412;28;20072;-51
2022/03/26 07:05:01;;;;;;;9.98;7.20;;;;;;;;;;5046155;28;20139;-51
2022/03/26 07:07:26;;;;;;;9.50;5.70;;;;;;;;;;5043808;28;20109;-51
2022/03/26 07:09:52;;;;;;;12.88;9.90;;;;;;;;;;5047564;28;21290;-51
2022/03/26 07:12:18;;;;;;;13.43;10.50;;;;;;;;;;5054366;28;20025;-50
2022/03/26 07:14:44;;;;;;;9.65;6.57;;;;;;;;;;5054284;28;20086;-50
2022/03/26 07:17:09;;;;;;;9.55;5.57;;;;;;;;;;5063344;28;20047;-50
2022/03/26 07:19:35;;;;;;;8.75;5.05;;;;;;;;;;5049354;28;20074;-50
2022/03/26 07:22:00;;;;;;;12.50;11.00;;;;;;;;;;5063843;28;20107;-50
2022/03/26 07:24:25;;;;;;;22.17;20.02;;;;;;;;;;5065145;28;20025;-51
2022/03/26 07:26:51;;;;;;;16.60;15.00;;;;;;;;;;5064830;28;20048;-50
2022/03/26 07:29:17;;;;;;;9.15;4.95;;;;;;;;;;5064221;28;20036;-51
2022/03/26 07:31:42;;;;;;;10.80;8.05;;;;;;;;;;5064751;28;20034;-50
2022/03/26 07:34:07;;;;;;;10.07;6.72;;;;;;;;;;5046640;28;20067;-51
2022/03/26 07:36:33;;;;;;;9.95;5.03;;;;;;;;;;5065058;28;20058;-51
2022/03/26 07:38:59;;;;;;;10.02;6.55;;;;;;;;;;5064878;28;20037;-51
2022/03/26 07:41:25;;;;;;;9.88;5.53;;;;;;;;;;5064899;28;20020;-50
2022/03/26 07:43:50;;;;;;;9.68;5.72;;;;;;;;;;5063847;28;20027;-50
2022/03/26 07:46:18;;;;;;;8.70;4.80;;;;;;;;;;5063674;28;20029;-51
2022/03/26 07:48:44;;;;;;;9.63;5.80;;;;;;;;;;5059704;28;20080;-51
2022/03/26 07:51:10;;;;;;;8.93;4.68;;;;;;;;;;5056594;28;20028;-49
2022/03/26 07:53:35;;;;;;;10.75;5.55;;;;;;;;;;5061625;28;20025;-50
2022/03/26 07:56:01;;;;;;;10.20;5.47;;;;;;;;;;5063150;28;20108;-50
2022/03/26 07:58:26;;;;;;;13.60;6.97;;;;;;;;;;5064505;28;20088;-52
2022/03/26 08:00:51;;;;;;;16.60;8.60;;;;;;;;;;5064515;28;20054;-49
2022/03/26 08:03:17;;;;;;;18.00;9.52;;;;;;;;;;5071703;28;20028;-51
2022/03/26 08:05:42;;;;;;;17.67;10.18;;;;;;;;;;5072692;28;20028;-52
2022/03/26 08:08:08;;;;;;;18.42;10.15;;;;;;;;;;5073268;28;20048;-49
2022/03/26 08:10:34;;;;;;;20.67;11.15;;;;;;;;;;5069812;28;20064;-49
2022/03/26 08:12:59;;;;;;;16.83;10.25;;;;;;;;;;5068648;28;20495;-51
2022/03/26 08:15:24;;;;;;;20.60;11.80;;;;;;;;;;5067467;28;20017;-52
2022/03/26 08:17:50;;;;;;;32.55;26.85;;;;;;;;;;5064190;28;20033;-50
2022/03/26 08:20:15;;;;;;;56.72;43.53;;;;;;;;;;5051407;28;20113;-49
2022/03/26 08:22:41;;;;;;;51.78;46.13;;;;;;;;;;5063896;28;20403;-50
2022/03/26 08:25:09;;;;;;;57.50;39.53;;;;;;;;;;5063986;28;20183;-49
2022/03/26 08:27:35;;;;;;;27.73;17.98;;;;;;;;;;5064458;28;20235;-50
2022/03/26 08:30:01;;;;;;;105.63;79.53;;;;;;;;;;5063493;28;20514;-50
2022/03/26 08:32:26;;;;;;;99.43;76.72;;;;;;;;;;5062678;28;20514;-50
2022/03/26 08:34:58;;;;;;;89.05;70.18;;;;;;;;;;5062572;28;20101;-50
2022/03/26 08:37:29;;;;;;;119.68;84.88;;;;;;;;;;5062489;28;20015;-50
2022/03/26 08:39:55;;;;;;;229.63;131.73;;;;;;;;;;5045367;28;20025;-50
2022/03/26 08:42:21;;;;;;;208.73;121.72;;;;;;;;;;5062824;28;20495;-50
2022/03/26 08:44:46;;;;;;;263.20;146.48;;;;;;;;;;5062449;28;20032;-50
2022/03/26 08:47:12;;;;;;;485.30;295.27;;;;;;;;;;5062767;28;20023;-49
2022/03/26 08:49:37;;;;;;;260.42;146.98;;;;;;;;;;5062471;28;20037;-49
2022/03/26 08:52:03;;;;;;;230.13;133.70;;;;;;;;;;5062986;28;20013;-49
2022/03/26 08:54:28;;;;;;;272.85;149.15;;;;;;;;;;5063333;28;20024;-50
2022/03/26 08:56:54;;;;;;;117.97;77.03;;;;;;;;;;5063411;28;20020;-49
2022/03/26 08:59:22;;;;;;;224.48;130.30;;;;;;;;;;5050011;28;20025;-49
2022/03/26 09:01:47;;;;;;;169.77;104.47;;;;;;;;;;5059469;28;20043;-49
2022/03/26 09:04:14;;;;;;;55.95;46.63;;;;;;;;;;5063311;28;20017;-50
2022/03/26 09:06:39;;;;;;;126.20;86.97;;;;;;;;;;5063143;28;20029;-50
2022/03/26 09:09:04;;;;;;;92.80;73.40;;;;;;;;;;5062808;28;20542;-50
2022/03/26 09:11:30;;;;;;;130.07;92.57;;;;;;;;;;5063078;28;20285;-50
2022/03/26 09:13:55;;;;;;;40.00;25.90;;;;;;;;;;5061424;28;20246;-50
2022/03/26 09:16:21;;;;;;;245.52;138.88;;;;;;;;;;5063118;28;20432;-51
2022/03/26 09:18:46;;;;;;;254.82;148.57;;;;;;;;;;5063134;28;20024;-50
2022/03/26 09:21:11;;;;;;;173.30;112.70;;;;;;;;;;5062931;28;20035;-50
2022/03/26 09:23:36;;;;;;;206.25;126.63;;;;;;;;;;5063087;28;20503;-50
2022/03/26 09:26:04;;;;;;;246.63;143.33;;;;;;;;;;5062158;28;20028;-49
2022/03/26 09:28:29;;;;;;;157.80;105.22;;;;;;;;;;5062573;28;20278;-49
2022/03/26 09:30:54;;;;;;;92.40;72.20;;;;;;;;;;5062291;28;20498;-49
2022/03/26 09:33:21;;;;;;;112.73;85.67;;;;;;;;;;5062550;28;20340;-50
2022/03/26 09:35:46;;;;;;;53.38;43.83;;;;;;;;;;5062611;28;20033;-50
2022/03/26 09:38:11;;;;;;;32.13;28.87;;;;;;;;;;5059335;28;20483;-49
2022/03/26 09:40:37;;;;;;;72.20;59.15;;;;;;;;;;5049635;28;20267;-50
2022/03/26 09:43:02;;;;;;;43.58;38.90;;;;;;;;;;5028257;28;20032;-49
2022/03/26 09:45:27;;;;;;;56.57;47.77;;;;;;;;;;5062353;28;20038;-49
2022/03/26 09:47:53;;;;;;;54.97;49.10;;;;;;;;;;5060652;28;20366;-50
2022/03/26 09:50:19;;;;;;;44.95;38.20;;;;;;;;;;5062340;28;20333;-49
2022/03/26 09:52:45;;;;;;;30.65;24.00;;;;;;;;;;5062478;28;20040;-49
2022/03/26 09:55:11;;;;;;;14.73;8.03;;;;;;;;;;5062435;28;20029;-49
2022/03/26 09:57:37;;;;;;;16.90;8.02;;;;;;;;;;5062440;28;20673;-49
2022/03/26 10:00:02;;;;;;;15.07;7.60;;;;;;;;;;5062384;28;20027;-49
2022/03/26 10:02:27;;;;;;;16.85;8.77;;;;;;;;;;5062731;28;20025;-49
2022/03/26 10:04:53;;;;;;;16.93;8.10;;;;;;;;;;5062434;28;20112;-50
2022/03/26 10:07:25;;;;;;;17.00;6.93;;;;;;;;;;5062027;28;20382;-51
2022/03/26 10:09:55;;;;;;;15.75;6.78;;;;;;;;;;5044121;28;20035;-49
2022/03/26 10:12:27;;;;;;;11.50;6.68;;;;;;;;;;5062409;28;20032;-50
2022/03/26 10:14:57;;;;;;;15.90;6.95;;;;;;;;;;5062239;28;20025;-49
2022/03/26 10:17:25;;;;;;;14.13;6.13;;;;;;;;;;5062245;28;20051;-50
2022/03/26 10:19:57;;;;;;;11.35;6.15;;;;;;;;;;5045428;28;20019;-50
2022/03/26 10:22:26;;;;;;;15.80;7.28;;;;;;;;;;5027301;28;20025;-51
2022/03/26 10:24:52;;;;;;;16.20;6.90;;;;;;;;;;5062127;28;20025;-51
2022/03/26 10:27:17;;;;;;;15.95;6.72;;;;;;;;;;5062245;28;20514;-50
2022/03/26 10:29:51;;;;;;;15.60;6.85;;;;;;;;;;5062191;28;20454;-52
2022/03/26 10:32:41;;;;;;;19.40;6.65;;;;;;;;;;5062370;28;20028;-52
2022/03/26 10:35:17;;;;;;;11.93;6.35;;;;;;;;;;5061991;28;20021;-50
2022/03/26 10:37:42;;;;;;;13.40;7.57;;;;;;;;;;5061788;28;20028;-49
2022/03/26 10:40:21;;;;;;;16.33;8.20;;;;;;;;;;5061943;28;20047;-49
2022/03/26 10:43:05;;;;;;;15.45;6.82;;;;;;;;;;5065078;28;20083;-49
2022/03/26 10:45:31;;;;;;;20.25;6.75;;;;;;;;;;5048026;28;20739;-50
2022/03/26 10:47:57;;;;;;;13.43;6.22;;;;;;;;;;5047824;28;20020;-50
2022/03/26 10:50:23;;;;;;;10.48;5.50;;;;;;;;;;5065823;28;20699;-50
2022/03/26 10:52:48;;;;;;;13.55;6.00;;;;;;;;;;5065460;28;20498;-51
2022/03/26 10:55:17;;;;;;;11.00;5.97;;;;;;;;;;5065771;28;20028;-50
2022/03/26 10:57:46;;;;;;;16.38;6.30;;;;;;;;;;5065827;28;20059;-50
2022/03/26 11:00:12;;;;;;;11.02;5.45;;;;;;;;;;5065414;28;20036;-50
2022/03/26 11:02:38;;;;;;;11.07;5.43;;;;;;;;;;5065771;28;20024;-50
2022/03/26 11:05:03;;;;;;;11.77;5.53;;;;;;;;;;5065463;28;20033;-50
2022/03/26 11:07:29;;;;;;;12.23;5.53;;;;;;;;;;5047839;28;20041;-50
2022/03/26 11:09:54;;;;;;;10.57;4.88;;;;;;;;;;5029991;28;20045;-51
2022/03/26 11:12:19;;;;;;;9.02;4.63;;;;;;;;;;5045400;28;20025;-50
2022/03/26 11:14:45;;;;;;;9.80;5.07;;;;;;;;;;5027451;28;20020;-50
2022/03/26 11:17:25;;;;;;;12.02;4.88;;;;;;;;;;5027464;28;20433;-50
2022/03/26 11:20:00;;;;;;;9.93;4.82;;;;;;;;;;5045097;28;20037;-49
2022/03/26 11:22:33;;;;;;;8.80;4.60;;;;;;;;;;5027497;28;20057;-50
2022/03/26 11:24:58;;;;;;;10.55;4.75;;;;;;;;;;5027273;28;20064;-51
2022/03/26 11:27:42;;;;;;;10.40;4.73;;;;;;;;;;5045432;28;20056;-50
2022/03/26 11:30:07;;;;;;;10.45;4.88;;;;;;;;;;5045362;28;20222;-50
2022/03/26 11:32:34;;;;;;;10.10;5.20;;;;;;;;;;5027136;28;20478;-52
2022/03/26 11:35:00;;;;;;;9.07;5.03;;;;;;;;;;5044912;28;20473;-51
2022/03/26 11:37:25;;;;;;;12.25;4.90;;;;;;;;;;5045099;28;20207;-50
2022/03/26 11:39:56;;;;;;;10.27;4.60;;;;;;;;;;5044880;28;20103;-51
2022/03/26 11:42:31;;;;;;;8.80;4.63;;;;;;;;;;5044822;28;20079;-50
2022/03/26 11:50:42;;;;;;;8.55;4.22;;;;;;;;;;5037458;28;20107;-50
2022/03/26 11:53:08;;;;;;;9.63;4.20;;;;;;;;;;5028175;28;20029;-50
2022/03/26 11:55:42;;;;;;;7.93;3.47;;;;;;;;;;5044576;28;20531;-52
2022/03/26 11:58:13;;;;;;;10.10;4.35;;;;;;;;;;5043661;28;20116;-50
2022/03/26 12:00:59;;;;;;;8.32;4.03;;;;;;;;;;5044606;28;20566;-50
2022/03/26 12:03:25;;;;;;;7.80;3.85;;;;;;;;;;5044486;28;20029;-50
2022/03/26 12:08:56;;;;;;;9.13;4.43;;;;;;;;;;5058596;28;20101;-51
2022/03/26 12:11:25;;;;;;;9.27;4.13;;;;;;;;;;5043102;28;20124;-52
2022/03/26 12:14:03;;;;;;;8.95;3.95;;;;;;;;;;5044085;28;20021;-49
2022/03/26 12:16:47;;;;;;;11.63;4.38;;;;;;;;;;5044020;28;20040;-50
2022/03/26 12:19:32;;;;;;;9.18;4.63;;;;;;;;;;5032838;28;20021;-50
2022/03/26 12:21:58;;;;;;;11.85;4.60;;;;;;;;;;5041331;28;20025;-49
2022/03/26 12:24:28;;;;;;;8.80;4.20;;;;;;;;;;5043794;28;20040;-51
2022/03/26 12:26:53;;;;;;;7.57;3.90;;;;;;;;;;5043845;28;20021;-52
2022/03/26 12:29:18;;;;;;;9.07;4.00;;;;;;;;;;5043793;28;20084;-51
2022/03/26 12:31:43;;;;;;;8.97;4.63;;;;;;;;;;5043999;28;20817;-49
2022/03/26 12:34:09;;;;;;;7.33;3.80;;;;;;;;;;5043748;28;20957;-50
2022/03/26 12:36:34;;;;;;;8.40;3.80;;;;;;;;;;5042526;28;20290;-52
2022/03/26 12:38:59;;;;;;;9.73;3.95;;;;;;;;;;5043567;28;20325;-51
2022/03/26 12:41:24;;;;;;;10.07;4.70;;;;;;;;;;5042734;28;20412;-49
2022/03/26 12:43:56;;;;;;;11.97;4.70;;;;;;;;;;5043502;28;20294;-51
2022/03/26 12:46:21;;;;;;;11.20;4.78;;;;;;;;;;5043627;28;20274;-51
2022/03/26 12:48:48;;;;;;;8.90;3.83;;;;;;;;;;5043432;28;20024;-50
2022/03/26 12:51:13;;;;;;;9.05;4.38;;;;;;;;;;5043495;28;20813;-49
2022/03/26 12:53:39;;;;;;;6.72;3.30;;;;;;;;;;5042298;28;20025;-50
2022/03/26 12:56:05;;;;;;;10.60;4.20;;;;;;;;;;5043135;28;20033;-51
2022/03/26 13:01:16;;;;;;;10.98;4.80;;;;;;;;;;5034950;28;20193;-50
2022/03/26 13:03:41;;;;;;;9.43;3.70;;;;;;;;;;5043152;28;20663;-50
2022/03/26 13:06:08;;;;;;;9.63;3.90;;;;;;;;;;5041793;28;20349;-50
2022/03/26 13:08:34;;;;;;;9.93;4.07;;;;;;;;;;5055695;28;20067;-50
2022/03/26 13:11:05;;;;;;;8.95;3.70;;;;;;;;;;5063243;28;20500;-50
2022/03/26 13:13:32;;;;;;;9.30;4.22;;;;;;;;;;5061842;28;20020;-49
2022/03/26 13:16:03;;;;;;;7.43;3.95;;;;;;;;;;5062847;28;20039;-51
2022/03/26 13:18:29;;;;;;;9.23;3.83;;;;;;;;;;5058533;28;20055;-51
2022/03/26 13:20:56;;;;;;;8.20;3.90;;;;;;;;;;5051790;28;20083;-51
2022/03/26 13:23:26;;;;;;;11.77;6.03;;;;;;;;;;5045683;28;20025;-51
2022/03/26 13:25:51;;;;;;;9.93;5.05;;;;;;;;;;5062968;28;20846;-51
2022/03/26 13:28:16;;;;;;;7.53;3.97;;;;;;;;;;5044718;28;20025;-51
2022/03/26 13:30:42;;;;;;;11.88;4.38;;;;;;;;;;5062832;28;20299;-50
2022/03/26 13:33:12;;;;;;;8.75;3.90;;;;;;;;;;5054419;28;20021;-50
2022/03/26 13:35:37;;;;;;;8.90;3.95;;;;;;;;;;5062697;28;20063;-49
2022/03/26 13:38:09;;;;;;;10.73;3.67;;;;;;;;;;5062334;28;20134;-50
2022/03/26 13:40:35;;;;;;;7.35;4.13;;;;;;;;;;5063001;28;20324;-51
2022/03/26 13:43:01;;;;;;;9.98;3.88;;;;;;;;;;5062440;28;20012;-50
2022/03/26 13:45:26;;;;;;;8.00;4.75;;;;;;;;;;5062327;28;20016;-52
2022/03/26 13:47:54;;;;;;;8.33;3.77;;;;;;;;;;5043132;28;20025;-51
2022/03/26 13:50:19;;;;;;;9.13;4.15;;;;;;;;;;5046035;28;20374;-50
2022/03/26 13:52:46;;;;;;;10.00;4.00;;;;;;;;;;5062439;28;20044;-50
2022/03/26 13:55:24;;;;;;;8.52;3.90;;;;;;;;;;5061971;28;20286;-51
2022/03/26 13:57:49;;;;;;;5.47;2.97;;;;;;;;;;5062098;28;20575;-50
2022/03/26 14:00:17;;;;;;;11.38;3.60;;;;;;;;;;5043870;28;20174;-50
2022/03/26 14:02:43;;;;;;;11.32;4.65;;;;;;;;;;5061527;28;20043;-51
2022/03/26 14:05:17;;;;;;;8.80;3.83;;;;;;;;;;5062306;28;20024;-50
2022/03/26 14:07:42;;;;;;;7.22;3.80;;;;;;;;;;5062318;28;20090;-51
2022/03/26 14:10:08;;;;;;;7.90;3.83;;;;;;;;;;5043927;28;20029;-52
2022/03/26 14:12:33;;;;;;;8.15;3.90;;;;;;;;;;5062428;28;20271;-49
2022/03/26 14:14:59;;;;;;;10.43;4.23;;;;;;;;;;5061975;28;20406;-51
2022/03/26 14:17:24;;;;;;;7.50;4.00;;;;;;;;;;5061308;28;20527;-50
2022/03/26 14:19:49;;;;;;;7.23;3.73;;;;;;;;;;5046719;28;20712;-50
2022/03/26 14:22:15;;;;;;;8.98;3.78;;;;;;;;;;5061564;28;20498;-51
2022/03/26 14:24:40;;;;;;;10.48;4.03;;;;;;;;;;5062095;28;20028;-50
2022/03/26 14:27:05;;;;;;;8.98;3.65;;;;;;;;;;5062162;28;20090;-51
2022/03/26 14:29:30;;;;;;;8.67;4.10;;;;;;;;;;5061984;28;20474;-51
2022/03/26 14:31:56;;;;;;;8.77;3.97;;;;;;;;;;5061874;28;20311;-51